sensor_id;sensor_type;location;lat;lon;timestamp;P1;durP1;ratioP1;P2;durP2;ratioP2
19519;SDS011;9904;52.246;20.898;2023-02-15T00:01:47;73.37;;;33.33;;
19519;SDS011;9904;52.246;20.898;2023-02-15T00:04:14;79.50;;;32.70;;
19519;SDS011;9904;52.246;20.898;2023-02-15T00:06:41;75.37;;;33.33;;
19519;SDS011;9904;52.246;20.898;2023-02-15T00:09:08;73.10;;;34.20;;
19519;SDS011;9904;52.246;20.898;2023-02-15T00:11:36;81.17;;;33.57;;
19519;SDS011;9904;52.246;20.898;2023-02-15T00:16:48;72.53;;;33.43;;
19519;SDS011;9904;52.246;20.898;2023-02-15T00:19:16;73.77;;;32.23;;
19519;SDS011;9904;52.246;20.898;2023-02-15T00:21:44;81.37;;;33.87;;
19519;SDS011;9904;52.246;20.898;2023-02-15T00:24:13;78.30;;;33.83;;
19519;SDS011;9904;52.246;20.898;2023-02-15T00:26:42;68.87;;;31.27;;
19519;SDS011;9904;52.246;20.898;2023-02-15T00:29:09;80.07;;;34.10;;
19519;SDS011;9904;52.246;20.898;2023-02-15T00:31:36;75.83;;;32.70;;
19519;SDS011;9904;52.246;20.898;2023-02-15T00:34:04;76.70;;;34.33;;
19519;SDS011;9904;52.246;20.898;2023-02-15T00:36:39;71.13;;;32.53;;
19519;SDS011;9904;52.246;20.898;2023-02-15T00:39:05;83.20;;;34.67;;
19519;SDS011;9904;52.246;20.898;2023-02-15T00:41:32;74.37;;;33.80;;
19519;SDS011;9904;52.246;20.898;2023-02-15T00:43:59;77.77;;;33.47;;
19519;SDS011;9904;52.246;20.898;2023-02-15T00:46:26;72.90;;;34.17;;
19519;SDS011;9904;52.246;20.898;2023-02-15T00:48:52;83.37;;;34.57;;
19519;SDS011;9904;52.246;20.898;2023-02-15T00:51:19;85.50;;;35.33;;
19519;SDS011;9904;52.246;20.898;2023-02-15T00:53:46;78.37;;;34.23;;
19519;SDS011;9904;52.246;20.898;2023-02-15T00:56:13;80.50;;;34.57;;
19519;SDS011;9904;52.246;20.898;2023-02-15T00:58:40;87.07;;;35.67;;
19519;SDS011;9904;52.246;20.898;2023-02-15T01:01:07;79.37;;;34.40;;
19519;SDS011;9904;52.246;20.898;2023-02-15T01:03:38;78.87;;;33.97;;
19519;SDS011;9904;52.246;20.898;2023-02-15T01:06:05;83.13;;;34.67;;
19519;SDS011;9904;52.246;20.898;2023-02-15T01:08:31;85.60;;;35.17;;
19519;SDS011;9904;52.246;20.898;2023-02-15T01:11:02;89.90;;;34.50;;
19519;SDS011;9904;52.246;20.898;2023-02-15T01:13:30;82.30;;;35.03;;
19519;SDS011;9904;52.246;20.898;2023-02-15T01:15:56;89.60;;;35.90;;
19519;SDS011;9904;52.246;20.898;2023-02-15T01:18:23;93.27;;;35.77;;
19519;SDS011;9904;52.246;20.898;2023-02-15T01:20:50;90.03;;;36.30;;
19519;SDS011;9904;52.246;20.898;2023-02-15T01:23:17;86.87;;;35.43;;
19519;SDS011;9904;52.246;20.898;2023-02-15T01:25:43;87.03;;;35.07;;
19519;SDS011;9904;52.246;20.898;2023-02-15T01:28:10;84.73;;;33.53;;
19519;SDS011;9904;52.246;20.898;2023-02-15T01:30:36;77.70;;;33.67;;
19519;SDS011;9904;52.246;20.898;2023-02-15T01:33:03;80.00;;;34.87;;
19519;SDS011;9904;52.246;20.898;2023-02-15T01:35:30;82.30;;;34.50;;
19519;SDS011;9904;52.246;20.898;2023-02-15T01:37:56;87.37;;;35.67;;
19519;SDS011;9904;52.246;20.898;2023-02-15T01:40:23;90.13;;;35.57;;
19519;SDS011;9904;52.246;20.898;2023-02-15T01:43:18;84.73;;;34.80;;
19519;SDS011;9904;52.246;20.898;2023-02-15T01:45:45;83.57;;;34.37;;
19519;SDS011;9904;52.246;20.898;2023-02-15T01:48:20;83.57;;;35.23;;
19519;SDS011;9904;52.246;20.898;2023-02-15T01:50:58;82.17;;;33.97;;
19519;SDS011;9904;52.246;20.898;2023-02-15T01:55:59;86.23;;;34.50;;
19519;SDS011;9904;52.246;20.898;2023-02-15T01:58:29;82.33;;;34.93;;
19519;SDS011;9904;52.246;20.898;2023-02-15T02:00:57;80.53;;;34.13;;
19519;SDS011;9904;52.246;20.898;2023-02-15T02:03:38;80.97;;;34.00;;
19519;SDS011;9904;52.246;20.898;2023-02-15T02:06:09;86.43;;;33.10;;
19519;SDS011;9904;52.246;20.898;2023-02-15T02:08:36;83.43;;;34.17;;
19519;SDS011;9904;52.246;20.898;2023-02-15T02:11:08;81.20;;;33.87;;
19519;SDS011;9904;52.246;20.898;2023-02-15T02:13:42;78.77;;;31.97;;
19519;SDS011;9904;52.246;20.898;2023-02-15T02:26:59;82.83;;;32.33;;
19519;SDS011;9904;52.246;20.898;2023-02-15T02:35:28;76.33;;;31.43;;
19519;SDS011;9904;52.246;20.898;2023-02-15T02:38:00;80.17;;;33.13;;
19519;SDS011;9904;52.246;20.898;2023-02-15T02:43:31;75.27;;;32.23;;
19519;SDS011;9904;52.246;20.898;2023-02-15T02:48:39;72.77;;;29.97;;
19519;SDS011;9904;52.246;20.898;2023-02-15T02:51:06;76.63;;;32.27;;
19519;SDS011;9904;52.246;20.898;2023-02-15T02:53:33;81.70;;;31.17;;
19519;SDS011;9904;52.246;20.898;2023-02-15T02:56:04;82.37;;;32.77;;
19519;SDS011;9904;52.246;20.898;2023-02-15T02:58:53;73.57;;;31.67;;
19519;SDS011;9904;52.246;20.898;2023-02-15T03:01:33;75.77;;;30.97;;
19519;SDS011;9904;52.246;20.898;2023-02-15T03:04:06;75.17;;;31.47;;
19519;SDS011;9904;52.246;20.898;2023-02-15T03:06:40;74.73;;;31.03;;
19519;SDS011;9904;52.246;20.898;2023-02-15T03:09:14;78.77;;;32.07;;
19519;SDS011;9904;52.246;20.898;2023-02-15T03:11:45;84.67;;;32.97;;
19519;SDS011;9904;52.246;20.898;2023-02-15T03:14:13;76.67;;;31.07;;
19519;SDS011;9904;52.246;20.898;2023-02-15T03:16:40;81.73;;;32.30;;
19519;SDS011;9904;52.246;20.898;2023-02-15T03:19:19;79.60;;;32.23;;
19519;SDS011;9904;52.246;20.898;2023-02-15T03:21:49;78.73;;;31.50;;
19519;SDS011;9904;52.246;20.898;2023-02-15T03:24:28;83.37;;;31.97;;
19519;SDS011;9904;52.246;20.898;2023-02-15T03:27:06;73.23;;;30.23;;
19519;SDS011;9904;52.246;20.898;2023-02-15T03:29:35;80.00;;;32.13;;
19519;SDS011;9904;52.246;20.898;2023-02-15T03:32:04;77.43;;;30.87;;
19519;SDS011;9904;52.246;20.898;2023-02-15T03:34:33;76.97;;;31.37;;
19519;SDS011;9904;52.246;20.898;2023-02-15T03:39:34;70.60;;;30.13;;
19519;SDS011;9904;52.246;20.898;2023-02-15T03:44:42;73.63;;;30.53;;
19519;SDS011;9904;52.246;20.898;2023-02-15T03:47:16;69.50;;;29.57;;
19519;SDS011;9904;52.246;20.898;2023-02-15T03:50:04;74.50;;;31.77;;
19519;SDS011;9904;52.246;20.898;2023-02-15T03:52:54;72.90;;;30.53;;
19519;SDS011;9904;52.246;20.898;2023-02-15T03:55:22;78.93;;;31.00;;
19519;SDS011;9904;52.246;20.898;2023-02-15T03:57:49;72.73;;;31.97;;
19519;SDS011;9904;52.246;20.898;2023-02-15T04:00:35;69.03;;;29.90;;
19519;SDS011;9904;52.246;20.898;2023-02-15T04:03:24;74.50;;;30.60;;
19519;SDS011;9904;52.246;20.898;2023-02-15T04:05:58;72.30;;;29.63;;
19519;SDS011;9904;52.246;20.898;2023-02-15T04:08:26;70.67;;;29.20;;
19519;SDS011;9904;52.246;20.898;2023-02-15T04:11:13;64.63;;;27.40;;
19519;SDS011;9904;52.246;20.898;2023-02-15T04:13:39;56.07;;;25.87;;
19519;SDS011;9904;52.246;20.898;2023-02-15T04:16:06;54.37;;;24.00;;
19519;SDS011;9904;52.246;20.898;2023-02-15T04:18:40;49.73;;;24.00;;
19519;SDS011;9904;52.246;20.898;2023-02-15T04:21:28;63.83;;;26.73;;
19519;SDS011;9904;52.246;20.898;2023-02-15T04:24:15;63.67;;;27.33;;
19519;SDS011;9904;52.246;20.898;2023-02-15T04:27:01;66.20;;;28.33;;
19519;SDS011;9904;52.246;20.898;2023-02-15T04:29:28;70.53;;;29.40;;
19519;SDS011;9904;52.246;20.898;2023-02-15T04:31:56;70.40;;;29.83;;
19519;SDS011;9904;52.246;20.898;2023-02-15T04:34:24;51.00;;;23.47;;
19519;SDS011;9904;52.246;20.898;2023-02-15T04:36:51;48.60;;;23.03;;
19519;SDS011;9904;52.246;20.898;2023-02-15T04:39:17;54.40;;;23.73;;
19519;SDS011;9904;52.246;20.898;2023-02-15T04:41:45;51.13;;;22.77;;
19519;SDS011;9904;52.246;20.898;2023-02-15T04:44:12;56.77;;;24.43;;
19519;SDS011;9904;52.246;20.898;2023-02-15T04:46:38;49.40;;;22.60;;
19519;SDS011;9904;52.246;20.898;2023-02-15T04:49:05;53.47;;;24.90;;
19519;SDS011;9904;52.246;20.898;2023-02-15T04:51:32;60.10;;;25.53;;
19519;SDS011;9904;52.246;20.898;2023-02-15T04:53:58;52.57;;;24.73;;
19519;SDS011;9904;52.246;20.898;2023-02-15T04:56:25;55.40;;;24.53;;
19519;SDS011;9904;52.246;20.898;2023-02-15T04:58:51;52.33;;;24.30;;
19519;SDS011;9904;52.246;20.898;2023-02-15T05:01:18;52.47;;;23.33;;
19519;SDS011;9904;52.246;20.898;2023-02-15T05:03:45;51.57;;;23.50;;
19519;SDS011;9904;52.246;20.898;2023-02-15T05:06:11;49.43;;;22.57;;
19519;SDS011;9904;52.246;20.898;2023-02-15T05:08:38;50.43;;;23.33;;
19519;SDS011;9904;52.246;20.898;2023-02-15T05:11:04;57.47;;;24.63;;
19519;SDS011;9904;52.246;20.898;2023-02-15T05:13:31;48.83;;;23.00;;
19519;SDS011;9904;52.246;20.898;2023-02-15T05:15:57;48.23;;;22.20;;
19519;SDS011;9904;52.246;20.898;2023-02-15T05:18:24;45.93;;;22.40;;
19519;SDS011;9904;52.246;20.898;2023-02-15T05:20:51;48.53;;;22.17;;
19519;SDS011;9904;52.246;20.898;2023-02-15T05:23:17;47.20;;;22.40;;
19519;SDS011;9904;52.246;20.898;2023-02-15T05:25:50;51.17;;;22.00;;
19519;SDS011;9904;52.246;20.898;2023-02-15T05:28:36;48.27;;;22.20;;
19519;SDS011;9904;52.246;20.898;2023-02-15T05:33:37;55.17;;;23.80;;
19519;SDS011;9904;52.246;20.898;2023-02-15T05:36:04;52.17;;;23.13;;
19519;SDS011;9904;52.246;20.898;2023-02-15T05:38:32;54.67;;;23.47;;
19519;SDS011;9904;52.246;20.898;2023-02-15T05:40:59;54.57;;;23.37;;
19519;SDS011;9904;52.246;20.898;2023-02-15T05:43:25;54.47;;;24.10;;
19519;SDS011;9904;52.246;20.898;2023-02-15T05:45:53;50.67;;;22.27;;
19519;SDS011;9904;52.246;20.898;2023-02-15T05:48:21;64.13;;;25.13;;
19519;SDS011;9904;52.246;20.898;2023-02-15T05:51:06;55.30;;;23.00;;
19519;SDS011;9904;52.246;20.898;2023-02-15T05:53:36;62.40;;;23.03;;
19519;SDS011;9904;52.246;20.898;2023-02-15T05:56:03;58.10;;;22.73;;
19519;SDS011;9904;52.246;20.898;2023-02-15T05:58:32;59.13;;;23.83;;
19519;SDS011;9904;52.246;20.898;2023-02-15T06:00:59;56.90;;;23.67;;
19519;SDS011;9904;52.246;20.898;2023-02-15T06:03:39;56.67;;;23.23;;
19519;SDS011;9904;52.246;20.898;2023-02-15T06:06:07;56.43;;;23.40;;
19519;SDS011;9904;52.246;20.898;2023-02-15T06:08:34;57.70;;;24.77;;
19519;SDS011;9904;52.246;20.898;2023-02-15T06:11:01;59.67;;;25.30;;
19519;SDS011;9904;52.246;20.898;2023-02-15T06:13:27;57.10;;;24.47;;
19519;SDS011;9904;52.246;20.898;2023-02-15T06:15:54;59.57;;;24.10;;
19519;SDS011;9904;52.246;20.898;2023-02-15T06:18:21;63.73;;;25.67;;
19519;SDS011;9904;52.246;20.898;2023-02-15T06:20:47;65.17;;;26.20;;
19519;SDS011;9904;52.246;20.898;2023-02-15T06:23:14;63.70;;;24.53;;
19519;SDS011;9904;52.246;20.898;2023-02-15T06:25:41;60.97;;;24.20;;
19519;SDS011;9904;52.246;20.898;2023-02-15T06:28:08;53.27;;;22.77;;
19519;SDS011;9904;52.246;20.898;2023-02-15T06:30:34;47.70;;;22.17;;
19519;SDS011;9904;52.246;20.898;2023-02-15T06:33:01;55.07;;;23.23;;
19519;SDS011;9904;52.246;20.898;2023-02-15T06:35:28;53.90;;;22.23;;
19519;SDS011;9904;52.246;20.898;2023-02-15T06:37:54;53.70;;;21.57;;
19519;SDS011;9904;52.246;20.898;2023-02-15T06:40:23;47.87;;;21.63;;
19519;SDS011;9904;52.246;20.898;2023-02-15T06:42:49;54.83;;;23.70;;
19519;SDS011;9904;52.246;20.898;2023-02-15T06:45:16;52.13;;;23.40;;
19519;SDS011;9904;52.246;20.898;2023-02-15T06:47:42;58.03;;;25.57;;
19519;SDS011;9904;52.246;20.898;2023-02-15T06:50:09;54.50;;;24.13;;
19519;SDS011;9904;52.246;20.898;2023-02-15T06:52:36;56.40;;;21.93;;
19519;SDS011;9904;52.246;20.898;2023-02-15T08:54:59;48.20;;;21.97;;
19519;SDS011;9904;52.246;20.898;2023-02-15T08:57:26;56.40;;;23.97;;
19519;SDS011;9904;52.246;20.898;2023-02-15T08:59:53;54.10;;;23.37;;
19519;SDS011;9904;52.246;20.898;2023-02-15T09:02:21;59.03;;;24.20;;
19519;SDS011;9904;52.246;20.898;2023-02-15T09:04:48;49.80;;;21.87;;
19519;SDS011;9904;52.246;20.898;2023-02-15T09:07:14;55.67;;;22.27;;
19519;SDS011;9904;52.246;20.898;2023-02-15T09:09:41;50.57;;;20.63;;
19519;SDS011;9904;52.246;20.898;2023-02-15T09:12:08;48.23;;;20.23;;
19519;SDS011;9904;52.246;20.898;2023-02-15T09:14:34;44.60;;;19.10;;
19519;SDS011;9904;52.246;20.898;2023-02-15T09:17:01;46.73;;;18.90;;
19519;SDS011;9904;52.246;20.898;2023-02-15T09:19:27;50.67;;;19.83;;
19519;SDS011;9904;52.246;20.898;2023-02-15T09:21:54;49.13;;;19.53;;
19519;SDS011;9904;52.246;20.898;2023-02-15T09:24:21;55.43;;;20.50;;
19519;SDS011;9904;52.246;20.898;2023-02-15T09:26:48;55.03;;;21.83;;
19519;SDS011;9904;52.246;20.898;2023-02-15T09:29:15;46.87;;;19.23;;
19519;SDS011;9904;52.246;20.898;2023-02-15T09:31:46;48.23;;;19.90;;
19519;SDS011;9904;52.246;20.898;2023-02-15T09:34:16;50.97;;;20.40;;
19519;SDS011;9904;52.246;20.898;2023-02-15T09:36:44;55.53;;;21.00;;
19519;SDS011;9904;52.246;20.898;2023-02-15T09:39:12;54.70;;;21.40;;
19519;SDS011;9904;52.246;20.898;2023-02-15T09:41:50;57.00;;;21.33;;
19519;SDS011;9904;52.246;20.898;2023-02-15T10:01:30;47.97;;;18.80;;
19519;SDS011;9904;52.246;20.898;2023-02-15T10:07:05;46.97;;;17.83;;
19519;SDS011;9904;52.246;20.898;2023-02-15T10:23:02;51.57;;;20.50;;
19519;SDS011;9904;52.246;20.898;2023-02-15T10:25:42;58.13;;;20.83;;
19519;SDS011;9904;52.246;20.898;2023-02-15T10:28:17;53.23;;;20.73;;
19519;SDS011;9904;52.246;20.898;2023-02-15T10:33:23;52.40;;;20.10;;
19519;SDS011;9904;52.246;20.898;2023-02-15T10:36:05;52.00;;;19.03;;
19519;SDS011;9904;52.246;20.898;2023-02-15T10:44:45;44.43;;;18.00;;
19519;SDS011;9904;52.246;20.898;2023-02-15T10:47:26;43.53;;;17.77;;
19519;SDS011;9904;52.246;20.898;2023-02-15T10:52:57;46.40;;;18.50;;
19519;SDS011;9904;52.246;20.898;2023-02-15T10:55:31;42.07;;;16.70;;
19519;SDS011;9904;52.246;20.898;2023-02-15T10:58:13;43.30;;;18.10;;
19519;SDS011;9904;52.246;20.898;2023-02-15T11:06:21;36.43;;;16.23;;
19519;SDS011;9904;52.246;20.898;2023-02-15T11:08:50;44.17;;;17.90;;
19519;SDS011;9904;52.246;20.898;2023-02-15T11:11:24;37.80;;;16.57;;
19519;SDS011;9904;52.246;20.898;2023-02-15T11:13:57;43.63;;;18.20;;
19519;SDS011;9904;52.246;20.898;2023-02-15T11:16:31;41.47;;;18.03;;
19519;SDS011;9904;52.246;20.898;2023-02-15T11:19:08;44.37;;;18.20;;
19519;SDS011;9904;52.246;20.898;2023-02-15T11:21:44;47.13;;;19.57;;
19519;SDS011;9904;52.246;20.898;2023-02-15T11:24:17;50.13;;;18.83;;
19519;SDS011;9904;52.246;20.898;2023-02-15T11:26:49;46.03;;;19.43;;
19519;SDS011;9904;52.246;20.898;2023-02-15T11:29:18;48.03;;;19.80;;
19519;SDS011;9904;52.246;20.898;2023-02-15T11:31:49;45.40;;;18.80;;
19519;SDS011;9904;52.246;20.898;2023-02-15T11:34:33;46.00;;;18.43;;
19519;SDS011;9904;52.246;20.898;2023-02-15T11:37:07;46.07;;;19.40;;
19519;SDS011;9904;52.246;20.898;2023-02-15T11:39:36;48.00;;;18.67;;
19519;SDS011;9904;52.246;20.898;2023-02-15T11:42:10;54.87;;;19.90;;
19519;SDS011;9904;52.246;20.898;2023-02-15T11:47:40;51.70;;;20.27;;
19519;SDS011;9904;52.246;20.898;2023-02-15T11:50:17;50.47;;;20.00;;
19519;SDS011;9904;52.246;20.898;2023-02-15T11:52:52;44.60;;;20.87;;
19519;SDS011;9904;52.246;20.898;2023-02-15T11:55:21;49.53;;;20.20;;
19519;SDS011;9904;52.246;20.898;2023-02-15T11:57:53;58.27;;;20.90;;
19519;SDS011;9904;52.246;20.898;2023-02-15T12:00:25;50.90;;;19.07;;
19519;SDS011;9904;52.246;20.898;2023-02-15T12:02:54;47.57;;;21.00;;
19519;SDS011;9904;52.246;20.898;2023-02-15T12:05:23;49.60;;;20.30;;
19519;SDS011;9904;52.246;20.898;2023-02-15T12:10:45;46.67;;;18.53;;
19519;SDS011;9904;52.246;20.898;2023-02-15T12:13:28;45.27;;;20.43;;
19519;SDS011;9904;52.246;20.898;2023-02-15T12:15:55;54.70;;;21.67;;
19519;SDS011;9904;52.246;20.898;2023-02-15T12:18:38;50.13;;;20.50;;
19519;SDS011;9904;52.246;20.898;2023-02-15T12:21:08;54.53;;;22.33;;
19519;SDS011;9904;52.246;20.898;2023-02-15T12:23:39;55.10;;;23.10;;
19519;SDS011;9904;52.246;20.898;2023-02-15T12:26:25;60.10;;;23.63;;
19519;SDS011;9904;52.246;20.898;2023-02-15T12:28:54;60.00;;;25.03;;
19519;SDS011;9904;52.246;20.898;2023-02-15T12:34:07;60.90;;;25.63;;
19519;SDS011;9904;52.246;20.898;2023-02-15T12:36:43;68.13;;;25.97;;
19519;SDS011;9904;52.246;20.898;2023-02-15T12:42:25;67.90;;;25.50;;
19519;SDS011;9904;52.246;20.898;2023-02-15T12:44:31;62.63;;;25.40;;
19519;SDS011;9904;52.246;20.898;2023-02-15T12:47:05;71.37;;;26.90;;
19519;SDS011;9904;52.246;20.898;2023-02-15T12:49:42;65.00;;;25.50;;
19519;SDS011;9904;52.246;20.898;2023-02-15T12:54:46;60.93;;;23.10;;
19519;SDS011;9904;52.246;20.898;2023-02-15T12:59:53;67.20;;;26.23;;
19519;SDS011;9904;52.246;20.898;2023-02-15T13:02:44;67.10;;;28.47;;
19519;SDS011;9904;52.246;20.898;2023-02-15T13:05:18;62.80;;;26.00;;
19519;SDS011;9904;52.246;20.898;2023-02-15T13:07:50;67.50;;;27.07;;
19519;SDS011;9904;52.246;20.898;2023-02-15T13:10:20;59.23;;;24.40;;
19519;SDS011;9904;52.246;20.898;2023-02-15T13:12:48;69.10;;;26.47;;
19519;SDS011;9904;52.246;20.898;2023-02-15T13:15:28;64.70;;;26.03;;
19519;SDS011;9904;52.246;20.898;2023-02-15T13:17:57;65.30;;;26.63;;
19519;SDS011;9904;52.246;20.898;2023-02-15T13:20:25;68.83;;;25.57;;
19519;SDS011;9904;52.246;20.898;2023-02-15T13:22:55;62.93;;;24.83;;
19519;SDS011;9904;52.246;20.898;2023-02-15T13:25:25;76.43;;;26.77;;
19519;SDS011;9904;52.246;20.898;2023-02-15T13:27:57;61.93;;;25.87;;
19519;SDS011;9904;52.246;20.898;2023-02-15T13:30:35;70.77;;;24.93;;
19519;SDS011;9904;52.246;20.898;2023-02-15T13:33:38;65.03;;;27.13;;
19519;SDS011;9904;52.246;20.898;2023-02-15T13:41:14;74.40;;;26.50;;
19519;SDS011;9904;52.246;20.898;2023-02-15T13:44:03;65.77;;;26.43;;
19519;SDS011;9904;52.246;20.898;2023-02-15T13:46:44;76.47;;;28.70;;
19519;SDS011;9904;52.246;20.898;2023-02-15T13:52:27;61.23;;;24.80;;
19519;SDS011;9904;52.246;20.898;2023-02-15T14:00:32;59.57;;;23.80;;
19519;SDS011;9904;52.246;20.898;2023-02-15T14:08:47;67.07;;;26.17;;
19519;SDS011;9904;52.246;20.898;2023-02-15T14:19:40;66.40;;;25.87;;
19519;SDS011;9904;52.246;20.898;2023-02-15T14:22:16;69.63;;;26.47;;
19519;SDS011;9904;52.246;20.898;2023-02-15T14:24:56;67.53;;;27.47;;
19519;SDS011;9904;52.246;20.898;2023-02-15T14:30:20;70.07;;;26.70;;
19519;SDS011;9904;52.246;20.898;2023-02-15T14:32:50;78.77;;;28.00;;
19519;SDS011;9904;52.246;20.898;2023-02-15T14:35:19;77.97;;;29.87;;
19519;SDS011;9904;52.246;20.898;2023-02-15T14:37:52;72.03;;;28.53;;
19519;SDS011;9904;52.246;20.898;2023-02-15T14:46:07;72.53;;;29.40;;
19519;SDS011;9904;52.246;20.898;2023-02-15T14:48:40;73.77;;;29.07;;
19519;SDS011;9904;52.246;20.898;2023-02-15T14:51:09;71.33;;;28.47;;
19519;SDS011;9904;52.246;20.898;2023-02-15T14:53:36;80.03;;;29.13;;
19519;SDS011;9904;52.246;20.898;2023-02-15T14:58:54;78.40;;;30.10;;
19519;SDS011;9904;52.246;20.898;2023-02-15T15:01:29;78.77;;;30.70;;
19519;SDS011;9904;52.246;20.898;2023-02-15T15:04:02;83.57;;;30.40;;
19519;SDS011;9904;52.246;20.898;2023-02-15T15:06:35;87.03;;;31.97;;
19519;SDS011;9904;52.246;20.898;2023-02-15T15:09:11;86.53;;;31.37;;
19519;SDS011;9904;52.246;20.898;2023-02-15T15:11:43;85.43;;;32.60;;
19519;SDS011;9904;52.246;20.898;2023-02-15T15:14:36;89.07;;;32.93;;
19519;SDS011;9904;52.246;20.898;2023-02-15T15:17:04;83.40;;;31.57;;
19519;SDS011;9904;52.246;20.898;2023-02-15T15:22:27;93.17;;;32.43;;
19519;SDS011;9904;52.246;20.898;2023-02-15T15:25:08;85.03;;;30.70;;
19519;SDS011;9904;52.246;20.898;2023-02-15T15:27:47;78.60;;;29.07;;
19519;SDS011;9904;52.246;20.898;2023-02-15T15:46:41;65.17;;;24.33;;
19519;SDS011;9904;52.246;20.898;2023-02-15T15:49:36;72.80;;;27.00;;
19519;SDS011;9904;52.246;20.898;2023-02-15T15:52:17;70.40;;;25.23;;
19519;SDS011;9904;52.246;20.898;2023-02-15T15:54:46;64.57;;;24.33;;
19519;SDS011;9904;52.246;20.898;2023-02-15T15:57:16;73.10;;;27.20;;
19519;SDS011;9904;52.246;20.898;2023-02-15T15:59:50;64.80;;;24.50;;
19519;SDS011;9904;52.246;20.898;2023-02-15T16:02:17;65.70;;;22.87;;
19519;SDS011;9904;52.246;20.898;2023-02-15T16:04:44;61.20;;;22.43;;
19519;SDS011;9904;52.246;20.898;2023-02-15T16:09:58;60.47;;;22.53;;
19519;SDS011;9904;52.246;20.898;2023-02-15T16:12:31;58.90;;;22.10;;
19519;SDS011;9904;52.246;20.898;2023-02-15T16:15:04;61.47;;;22.43;;
19519;SDS011;9904;52.246;20.898;2023-02-15T16:17:40;58.70;;;22.97;;
19519;SDS011;9904;52.246;20.898;2023-02-15T16:20:16;59.80;;;23.33;;
19519;SDS011;9904;52.246;20.898;2023-02-15T16:22:46;55.00;;;22.03;;
19519;SDS011;9904;52.246;20.898;2023-02-15T16:25:22;60.70;;;23.17;;
19519;SDS011;9904;52.246;20.898;2023-02-15T16:28:05;55.07;;;22.33;;
19519;SDS011;9904;52.246;20.898;2023-02-15T16:30:34;56.30;;;23.03;;
19519;SDS011;9904;52.246;20.898;2023-02-15T16:33:06;60.10;;;22.47;;
19519;SDS011;9904;52.246;20.898;2023-02-15T16:35:34;62.87;;;22.90;;
19519;SDS011;9904;52.246;20.898;2023-02-15T16:38:02;68.23;;;23.77;;
19519;SDS011;9904;52.246;20.898;2023-02-15T16:43:11;66.60;;;23.87;;
19519;SDS011;9904;52.246;20.898;2023-02-15T16:45:41;64.77;;;25.60;;
19519;SDS011;9904;52.246;20.898;2023-02-15T16:48:10;60.17;;;24.57;;
19519;SDS011;9904;52.246;20.898;2023-02-15T16:50:40;65.87;;;24.53;;
19519;SDS011;9904;52.246;20.898;2023-02-15T16:53:14;60.43;;;23.00;;
19519;SDS011;9904;52.246;20.898;2023-02-15T16:55:45;69.43;;;26.03;;
19519;SDS011;9904;52.246;20.898;2023-02-15T16:58:16;66.93;;;25.63;;
19519;SDS011;9904;52.246;20.898;2023-02-15T17:00:43;69.67;;;26.07;;
19519;SDS011;9904;52.246;20.898;2023-02-15T17:13:26;62.67;;;23.77;;
19519;SDS011;9904;52.246;20.898;2023-02-15T17:20:56;70.60;;;27.77;;
19519;SDS011;9904;52.246;20.898;2023-02-15T17:23:28;81.47;;;29.00;;
19519;SDS011;9904;52.246;20.898;2023-02-15T17:25:57;72.63;;;27.70;;
19519;SDS011;9904;52.246;20.898;2023-02-15T17:28:25;68.63;;;25.47;;
19519;SDS011;9904;52.246;20.898;2023-02-15T17:30:54;71.40;;;25.70;;
19519;SDS011;9904;52.246;20.898;2023-02-15T17:33:24;74.93;;;26.60;;
19519;SDS011;9904;52.246;20.898;2023-02-15T17:41:24;75.33;;;27.70;;
19519;SDS011;9904;52.246;20.898;2023-02-15T17:43:52;67.40;;;27.40;;
19519;SDS011;9904;52.246;20.898;2023-02-15T17:46:19;75.27;;;27.83;;
19519;SDS011;9904;52.246;20.898;2023-02-15T17:48:49;77.77;;;28.87;;
19519;SDS011;9904;52.246;20.898;2023-02-15T17:51:18;74.20;;;28.87;;
19519;SDS011;9904;52.246;20.898;2023-02-15T17:53:45;78.40;;;29.13;;
19519;SDS011;9904;52.246;20.898;2023-02-15T17:56:32;73.37;;;27.73;;
19519;SDS011;9904;52.246;20.898;2023-02-15T17:58:59;78.80;;;28.53;;
19519;SDS011;9904;52.246;20.898;2023-02-15T18:01:25;72.83;;;29.33;;
19519;SDS011;9904;52.246;20.898;2023-02-15T18:04:11;74.60;;;28.77;;
19519;SDS011;9904;52.246;20.898;2023-02-15T18:06:57;73.67;;;28.83;;
19519;SDS011;9904;52.246;20.898;2023-02-15T18:09:43;74.57;;;28.43;;
19519;SDS011;9904;52.246;20.898;2023-02-15T18:12:29;74.93;;;27.80;;
19519;SDS011;9904;52.246;20.898;2023-02-15T18:14:57;71.13;;;27.10;;
19519;SDS011;9904;52.246;20.898;2023-02-15T18:19:53;66.27;;;26.83;;
19519;SDS011;9904;52.246;20.898;2023-02-15T18:22:21;65.53;;;26.17;;
19519;SDS011;9904;52.246;20.898;2023-02-15T18:24:47;62.07;;;26.17;;
19519;SDS011;9904;52.246;20.898;2023-02-15T18:27:14;74.83;;;28.20;;
19519;SDS011;9904;52.246;20.898;2023-02-15T18:29:41;65.10;;;26.43;;
19519;SDS011;9904;52.246;20.898;2023-02-15T18:32:09;66.90;;;27.13;;
19519;SDS011;9904;52.246;20.898;2023-02-15T18:34:39;72.83;;;28.97;;
19519;SDS011;9904;52.246;20.898;2023-02-15T18:37:11;73.27;;;29.67;;
19519;SDS011;9904;52.246;20.898;2023-02-15T18:39:40;73.40;;;28.87;;
19519;SDS011;9904;52.246;20.898;2023-02-15T18:45:18;79.57;;;29.23;;
19519;SDS011;9904;52.246;20.898;2023-02-15T18:47:44;74.87;;;28.60;;
19519;SDS011;9904;52.246;20.898;2023-02-15T18:50:16;79.73;;;30.97;;
19519;SDS011;9904;52.246;20.898;2023-02-15T18:52:44;77.90;;;29.30;;
19519;SDS011;9904;52.246;20.898;2023-02-15T18:55:14;70.63;;;28.83;;
19519;SDS011;9904;52.246;20.898;2023-02-15T18:57:52;80.67;;;30.10;;
19519;SDS011;9904;52.246;20.898;2023-02-15T19:00:21;79.37;;;30.63;;
19519;SDS011;9904;52.246;20.898;2023-02-15T19:02:50;77.53;;;30.07;;
19519;SDS011;9904;52.246;20.898;2023-02-15T19:05:17;87.70;;;32.70;;
19519;SDS011;9904;52.246;20.898;2023-02-15T19:07:43;72.37;;;29.50;;
19519;SDS011;9904;52.246;20.898;2023-02-15T19:10:19;75.97;;;29.67;;
19519;SDS011;9904;52.246;20.898;2023-02-15T19:12:47;77.30;;;30.10;;
19519;SDS011;9904;52.246;20.898;2023-02-15T19:15:14;80.97;;;30.33;;
19519;SDS011;9904;52.246;20.898;2023-02-15T19:17:42;75.63;;;28.60;;
19519;SDS011;9904;52.246;20.898;2023-02-15T19:20:16;77.60;;;29.63;;
19519;SDS011;9904;52.246;20.898;2023-02-15T19:22:45;69.27;;;28.60;;
19519;SDS011;9904;52.246;20.898;2023-02-15T19:25:13;84.83;;;30.37;;
19519;SDS011;9904;52.246;20.898;2023-02-15T19:27:45;77.10;;;30.37;;
19519;SDS011;9904;52.246;20.898;2023-02-15T19:30:14;83.80;;;30.87;;
19519;SDS011;9904;52.246;20.898;2023-02-15T19:32:43;76.63;;;30.10;;
19519;SDS011;9904;52.246;20.898;2023-02-15T19:35:14;77.23;;;30.27;;
19519;SDS011;9904;52.246;20.898;2023-02-15T19:37:43;82.30;;;31.97;;
19519;SDS011;9904;52.246;20.898;2023-02-15T19:40:28;84.97;;;30.37;;
19519;SDS011;9904;52.246;20.898;2023-02-15T19:42:56;79.70;;;30.10;;
19519;SDS011;9904;52.246;20.898;2023-02-15T19:45:24;85.33;;;30.27;;
19519;SDS011;9904;52.246;20.898;2023-02-15T19:47:52;74.60;;;28.73;;
19519;SDS011;9904;52.246;20.898;2023-02-15T19:50:21;77.47;;;30.20;;
19519;SDS011;9904;52.246;20.898;2023-02-15T19:52:52;79.07;;;29.97;;
19519;SDS011;9904;52.246;20.898;2023-02-15T19:55:29;80.27;;;30.33;;
19519;SDS011;9904;52.246;20.898;2023-02-15T19:57:58;72.57;;;29.00;;